Wilson Gdynia — 8PSA — position and weather

sailwx.info

Track history (hours):
 
Tides and Currents Weather Stations Pressure Air Temp Water Temp Dewpoint Dewpoint Depression Visibility Wind Speed Wind Dir Waves Ship Positions

Wilson Gdynia

Last reported at 2018-Feb-10 12:45 UTC. Time now 2018-Feb-19 20:20 UTC.
Position N 54°42' E 020°27'.
Warning: this ship's position is 9 days out of date.

Length 88 m; draft 3.4 m.

Type: Ship. MMSI: 314192000.

Date/timePositionNaut miles runAvg speedWind from/ knotsBaromVisibWave heightAir tempDewpointWater temp
2018-Feb-10 12:45N 54°42' E 020°27'0 0.0
2018-Feb-10 12:30N 54°42' E 020°27'0 0.1
2018-Feb-10 10:06N 54°42' E 020°27'  
2018-Feb-08 03:30N 54°43' E 019°19'18 9.1
2018-Feb-08 01:30N 54°34' E 018°52'5 9.2
2018-Feb-08 01:01N 54°32' E 018°45'510.2
2018-Feb-08 00:30N 54°32' E 018°36'2 4.4
2018-Feb-08 00:00N 54°32' E 018°32'0 0.0
2018-Feb-07 23:30N 54°32' E 018°32'0 0.0
2018-Feb-07 23:00N 54°32' E 018°32'0 0.0
2018-Feb-07 22:30N 54°32' E 018°32'0 0.0
2018-Feb-07 22:00N 54°32' E 018°32'0 0.0
2018-Feb-07 21:30N 54°32' E 018°32'0 0.0
2018-Feb-07 09:30N 54°32' E 018°32'0 0.0
2018-Feb-07 09:00N 54°32' E 018°32'0 0.0
2018-Feb-07 08:30N 54°32' E 018°32'0 0.0
2018-Feb-07 08:00N 54°32' E 018°32'0 0.0
2018-Feb-07 07:30N 54°32' E 018°32'0 0.0
2018-Feb-07 07:00N 54°32' E 018°32'0 0.0
2018-Feb-07 06:30N 54°32' E 018°32'0 0.0
2018-Feb-07 06:00N 54°32' E 018°32'0 0.0
2018-Feb-07 05:30N 54°32' E 018°32'0 0.0
2018-Feb-07 05:00N 54°32' E 018°32'0 0.0
2018-Feb-07 04:30N 54°32' E 018°32'0 0.0
2018-Feb-07 04:00N 54°32' E 018°32'0 0.0
2018-Feb-07 03:30N 54°32' E 018°32'0 0.0
2018-Feb-07 03:00N 54°32' E 018°32'0 0.0
2018-Feb-07 02:30N 54°32' E 018°32'0 0.0
2018-Feb-07 02:00N 54°32' E 018°32'0 0.0
2018-Feb-07 01:30N 54°32' E 018°32'0 0.0
2018-Feb-07 01:00N 54°32' E 018°32'0 0.0
2018-Feb-07 00:30N 54°32' E 018°32'0 0.0
2018-Feb-07 00:00N 54°32' E 018°32'0 0.0
2018-Feb-06 23:30N 54°32' E 018°32'0 0.1
2018-Feb-06 23:00N 54°32' E 018°32'3 5.8
2018-Feb-06 22:30N 54°32' E 018°37'4 8.9
2018-Feb-06 22:00N 54°32' E 018°45'4 8.8
2018-Feb-06 21:30N 54°35' E 018°51'9 9.2
2018-Feb-06 20:30N 54°43' E 018°57'14 9.1
2018-Feb-06 19:00N 54°53' E 018°41'510.0
2018-Feb-06 18:30N 54°56' E 018°34'5 9.6
2018-Feb-06 18:00N 54°57' E 018°26'107 9.4
2018-Feb-06 06:35N 54°50' E 015°20'3 9.5
2018-Feb-06 06:17N 54°50' E 015°15'12 9.3
2018-Feb-06 05:00N 54°52' E 014°54'5 9.7
2018-Feb-06 04:30N 54°53' E 014°46'5 9.8
2018-Feb-06 04:00N 54°54' E 014°38'50 9.7
2018-Feb-05 22:50N 55°09' E 013°14'4 9.9
2018-Feb-05 22:28N 55°10' E 013°09'4 9.8
2018-Feb-05 22:00N 55°12' E 013°01'5 9.8
2018-Feb-05 21:30N 55°14' E 012°53'12 7.9
2018-Feb-05 20:00N 55°23' E 012°39'5 9.5
2018-Feb-05 19:30N 55°27' E 012°41'5 9.2
2018-Feb-05 19:00N 55°32' E 012°42'4 8.2
2018-Feb-05 18:30N 55°36' E 012°42'4 7.9
2018-Feb-05 18:00N 55°40' E 012°41'4 8.9
2018-Feb-05 17:30N 55°44' E 012°41'5 9.2
2018-Feb-05 17:00N 55°49' E 012°40'5 9.2
2018-Feb-05 16:30N 55°53' E 012°39'4 8.8
2018-Feb-05 16:00N 55°58' E 012°38'7 7.4
2018-Feb-05 15:00N 56°05' E 012°35'4 7.3
2018-Feb-05 14:30N 56°07' E 012°30'5 9.4
2018-Feb-05 14:00N 56°10' E 012°23'510.3
2018-Feb-05 13:30N 56°13' E 012°15'46 9.6
2018-Feb-05 08:40N 56°56' E 011°45'210.1
2018-Feb-05 08:29N 56°58' E 011°44'510.0
2018-Feb-05 08:00N 57°03' E 011°41'5 9.9
2018-Feb-05 07:30N 57°07' E 011°38'5 9.7
2018-Feb-05 07:00N 57°12' E 011°35'5 9.3
2018-Feb-05 06:30N 57°16' E 011°32'9 9.0
2018-Feb-05 05:30N 57°25' E 011°26'4 8.5
2018-Feb-05 05:01N 57°28' E 011°23'4 8.7
2018-Feb-05 04:30N 57°31' E 011°17'4 8.7
2018-Feb-05 04:00N 57°34' E 011°10'4 8.9
2018-Feb-05 03:30N 57°37' E 011°04'5 9.1
2018-Feb-05 03:00N 57°40' E 010°58'5 9.1
2018-Feb-05 02:30N 57°43' E 010°51'4 8.9
2018-Feb-05 02:00N 57°46' E 010°45'4 8.2
2018-Feb-05 01:30N 57°48' E 010°38'4 8.2
2018-Feb-05 01:00N 57°48' E 010°30'14 8.4
2018-Feb-04 23:22N 57°48' E 010°05'3 8.6
2018-Feb-04 22:59N 57°48' E 009°58'4 8.6
2018-Feb-04 22:29N 57°48' E 009°50'4 8.6
2018-Feb-04 22:00N 57°48' E 009°43'4 8.5
2018-Feb-04 21:30N 57°48' E 009°35'40 6.5
2018-Feb-04 15:26N 57°50' E 008°21'2 3.7
2018-Feb-04 15:00N 57°50' E 008°17'2 3.6
2018-Feb-04 14:30N 57°50' E 008°14'2 3.4
2018-Feb-04 13:59N 57°50' E 008°11'1 3.1
2018-Feb-04 13:30N 57°50' E 008°08'2 3.6
2018-Feb-04 12:59N 57°50' E 008°04'2 4.1
2018-Feb-04 12:30N 57°50' E 008°01'2 4.6
2018-Feb-04 12:00N 57°51' E 007°56'3 5.1
2018-Feb-04 11:30N 57°51' E 007°52'9 5.8
2018-Feb-04 10:00N 57°51' E 007°35'6 6.2
2018-Feb-04 09:00N 57°52' E 007°24'3 6.6
2018-Feb-04 08:30N 57°52' E 007°17'4 7.2
2018-Feb-04 08:00N 57°52' E 007°11'4 7.6
2018-Feb-04 07:30N 57°52' E 007°04'4 7.1
2018-Feb-04 07:00N 57°53' E 006°57'4 7.9
2018-Feb-04 06:31N 57°55' E 006°51'4 8.5
2018-Feb-04 06:01N 57°57' E 006°44'4 8.2
2018-Feb-04 05:30N 57°59' E 006°37'4 8.7
2018-Feb-04 05:00N 58°01' E 006°30'5 9.0
2018-Feb-04 04:30N 58°04' E 006°23'4 9.1
2018-Feb-04 04:00N 58°07' E 006°17'4 8.5
2018-Feb-04 03:31N 58°10' E 006°12'4 8.4
2018-Feb-04 03:00N 58°13' E 006°05'4 8.6
2018-Feb-04 02:30N 58°16' E 005°60'5 9.1
2018-Feb-04 02:00N 58°19' E 005°53'4 8.9
2018-Feb-04 01:30N 58°22' E 005°48'4 8.6
2018-Feb-04 01:00N 58°25' E 005°42'4 7.8
2018-Feb-04 00:30N 58°28' E 005°37'5 9.2
2018-Feb-04 00:00N 58°32' E 005°32'5 9.3
2018-Feb-03 23:30N 58°36' E 005°27'5 9.9
2018-Feb-03 23:00N 58°40' E 005°22'5 9.8
2018-Feb-03 22:30N 58°44' E 005°18'5 9.4
2018-Feb-03 22:00N 58°48' E 005°13'5 9.5
2018-Feb-03 21:30N 58°52' E 005°08'5 9.3
2018-Feb-03 21:00N 58°56' E 005°03'4 8.9
2018-Feb-03 20:30N 58°60' E 004°59'4 8.6
2018-Feb-03 20:00N 59°04' E 004°54'69 9.3
2018-Feb-03 12:35N 60°11' E 004°27'2 7.9
2018-Feb-03 12:19N 60°13' E 004°27'4 7.6
2018-Feb-03 11:50N 60°17' E 004°26'4 7.6
2018-Feb-03 11:21N 60°21' E 004°25'4 7.9
2018-Feb-03 10:48N 60°25' E 004°24'3 7.8
2018-Feb-03 10:28N 60°28' E 004°23'4 7.8
2018-Feb-03 09:59N 60°31' E 004°22'4 7.6
2018-Feb-03 09:30N 60°35' E 004°22'4 7.8
2018-Feb-03 09:00N 60°39' E 004°22'4 8.1
2018-Feb-03 08:30N 60°43' E 004°21'4 8.2
2018-Feb-03 08:00N 60°47' E 004°20'12 8.3
2018-Feb-03 06:31N 60°59' E 004°17'4 7.6
2018-Feb-03 06:01N 61°03' E 004°18'4 7.6
2018-Feb-03 05:30N 61°07' E 004°19'4 7.6
2018-Feb-03 04:58N 61°11' E 004°21'8 7.9
2018-Feb-03 04:00N 61°19' E 004°22'4 8.9
2018-Feb-03 03:30N 61°23' E 004°23'15 9.7
2018-Feb-03 02:00N 61°37' E 004°27'5 9.8
2018-Feb-03 01:29N 61°42' E 004°30'5 9.6
2018-Feb-03 01:00N 61°47' E 004°33'5 9.1
2018-Feb-03 00:30N 61°51' E 004°37'5 9.0
2018-Feb-03 00:00N 61°55' E 004°41'5 9.0
2018-Feb-02 23:30N 61°59' E 004°45'5 9.0
2018-Feb-02 23:00N 62°03' E 004°48'5 9.3
2018-Feb-02 22:30N 62°08' E 004°52'4 8.9
2018-Feb-02 22:00N 62°12' E 004°56'4 8.5
2018-Feb-02 21:30N 62°16' E 004°60'4 8.9
2018-Feb-02 21:00N 62°19' E 005°06'5 9.5
2018-Feb-02 20:31N 62°22' E 005°12'5 9.8
2018-Feb-02 20:00N 62°26' E 005°19'10 9.6
2018-Feb-02 19:00N 62°34' E 005°33'5 9.4
2018-Feb-02 18:29N 62°37' E 005°39'5 9.3
2018-Feb-02 18:00N 62°41' E 005°46'5 9.3
2018-Feb-02 17:29N 62°45' E 005°52'5 9.6
2018-Feb-02 17:00N 62°48' E 005°59'510.0
2018-Feb-02 16:29N 62°52' E 006°07'10 9.7
2018-Feb-02 15:29N 62°59' E 006°21'1010.1
2018-Feb-02 14:30N 63°07' E 006°35'510.1
2018-Feb-02 14:00N 63°11' E 006°42'510.0
2018-Feb-02 13:30N 63°15' E 006°48'5 9.5
2018-Feb-02 13:00N 63°19' E 006°54'5 9.3
2018-Feb-02 12:30N 63°22' E 007°00'5 9.3
2018-Feb-02 12:00N 63°26' E 007°05'5 9.7
2018-Feb-02 11:30N 63°31' E 007°12'5 9.3
2018-Feb-02 11:00N 63°34' E 007°18'5 9.5
2018-Feb-02 10:30N 63°38' E 007°24'17 9.5
2018-Feb-02 08:44N 63°52' E 007°47'2 9.0
2018-Feb-02 08:30N 63°53' E 007°51'5 9.3
2018-Feb-02 08:00N 63°56' E 007°59'169 9.1
2018-Feb-01 13:30N 66°19' E 011°30'4 8.1
2018-Feb-01 13:00N 66°23' E 011°33'4 8.1
2018-Feb-01 12:30N 66°27' E 011°35'4 8.1
2018-Feb-01 12:00N 66°31' E 011°38'8 8.2
2018-Feb-01 11:00N 66°38' E 011°48'4 8.1
2018-Feb-01 10:30N 66°41' E 011°55'4 8.8
2018-Feb-01 10:00N 66°45' E 012°02'32 8.8
2018-Feb-01 06:26N 67°10' E 012°51'4 9.6
2018-Feb-01 06:00N 67°13' E 012°58'5 9.8
2018-Feb-01 05:30N 67°17' E 013°06'5 9.4
2018-Feb-01 04:59N 67°21' E 013°13'4 9.2
2018-Feb-01 04:30N 67°24' E 013°20'5 9.2
2018-Feb-01 04:00N 67°28' E 013°27'9 8.8
2018-Feb-01 03:00N 67°34' E 013°43'5 9.3
2018-Feb-01 02:30N 67°38' E 013°52'5 9.2
2018-Feb-01 02:00N 67°41' E 014°00'5 9.4
2018-Feb-01 01:30N 67°44' E 014°09'5 9.3
2018-Feb-01 01:00N 67°47' E 014°18'5 9.6
2018-Feb-01 00:30N 67°51' E 014°27'5 9.4
2018-Jan-31 23:58N 67°54' E 014°36'10 9.8
2018-Jan-31 23:00N 68°01' E 014°54'5 9.4
2018-Jan-31 22:28N 68°05' E 015°03'14 9.6
2018-Jan-31 21:00N 68°13' E 015°35'5 9.6
2018-Jan-31 20:30N 68°16' E 015°45'4 8.8
2018-Jan-31 20:00N 68°18' E 015°54'5 9.8
2018-Jan-31 19:30N 68°22' E 016°04'510.1
2018-Jan-31 18:59N 68°24' E 016°17'510.2
2018-Jan-31 18:30N 68°25' E 016°30'510.1
2018-Jan-31 18:00N 68°26' E 016°43'3 6.3
2018-Jan-31 17:30N 68°24' E 016°50'0 0.2
2018-Jan-31 16:59N 68°24' E 016°50'0 0.0
2018-Jan-31 16:29N 68°24' E 016°50'0 0.0
2018-Jan-31 15:59N 68°24' E 016°50'0 0.0
2018-Jan-31 15:29N 68°24' E 016°50'0 0.0
2018-Jan-31 14:59N 68°24' E 016°50'0 0.0
2018-Jan-31 14:29N 68°24' E 016°50'0 0.0
2018-Jan-31 12:59N 68°24' E 016°50'  
Track history (hours):
 
Tides and Currents Weather Stations Pressure Air Temp Water Temp Dewpoint Dewpoint Depression Visibility Wind Speed Wind Dir Waves Ship Positions

Wilson Gdynia

Last reported at 2018-Feb-10 12:45 UTC. Time now 2018-Feb-19 20:20 UTC.
Position N 54°42' E 020°27'.
Warning: this ship's position is 9 days out of date.

Length 88 m; draft 3.4 m.

Type: Ship. MMSI: 314192000.

Date/timePositionNaut miles runAvg speedWind from/ knotsBaromVisibWave heightAir tempDewpointWater temp
2018-Feb-10 12:45N 54°42' E 020°27'0 0.0
2018-Feb-10 12:30N 54°42' E 020°27'0 0.1
2018-Feb-10 10:06N 54°42' E 020°27'  
2018-Feb-08 03:30N 54°43' E 019°19'18 9.1
2018-Feb-08 01:30N 54°34' E 018°52'5 9.2
2018-Feb-08 01:01N 54°32' E 018°45'510.2
2018-Feb-08 00:30N 54°32' E 018°36'2 4.4
2018-Feb-08 00:00N 54°32' E 018°32'0 0.0
2018-Feb-07 23:30N 54°32' E 018°32'0 0.0
2018-Feb-07 23:00N 54°32' E 018°32'0 0.0
2018-Feb-07 22:30N 54°32' E 018°32'0 0.0
2018-Feb-07 22:00N 54°32' E 018°32'0 0.0
2018-Feb-07 21:30N 54°32' E 018°32'0 0.0
2018-Feb-07 09:30N 54°32' E 018°32'0 0.0
2018-Feb-07 09:00N 54°32' E 018°32'0 0.0
2018-Feb-07 08:30N 54°32' E 018°32'0 0.0
2018-Feb-07 08:00N 54°32' E 018°32'0 0.0
2018-Feb-07 07:30N 54°32' E 018°32'0 0.0
2018-Feb-07 07:00N 54°32' E 018°32'0 0.0
2018-Feb-07 06:30N 54°32' E 018°32'0 0.0
2018-Feb-07 06:00N 54°32' E 018°32'0 0.0
2018-Feb-07 05:30N 54°32' E 018°32'0 0.0
2018-Feb-07 05:00N 54°32' E 018°32'0 0.0
2018-Feb-07 04:30N 54°32' E 018°32'0 0.0
2018-Feb-07 04:00N 54°32' E 018°32'0 0.0
2018-Feb-07 03:30N 54°32' E 018°32'0 0.0
2018-Feb-07 03:00N 54°32' E 018°32'0 0.0
2018-Feb-07 02:30N 54°32' E 018°32'0 0.0
2018-Feb-07 02:00N 54°32' E 018°32'0 0.0
2018-Feb-07 01:30N 54°32' E 018°32'0 0.0
2018-Feb-07 01:00N 54°32' E 018°32'0 0.0
2018-Feb-07 00:30N 54°32' E 018°32'0 0.0
2018-Feb-07 00:00N 54°32' E 018°32'0 0.0
2018-Feb-06 23:30N 54°32' E 018°32'0 0.1
2018-Feb-06 23:00N 54°32' E 018°32'3 5.8
2018-Feb-06 22:30N 54°32' E 018°37'4 8.9
2018-Feb-06 22:00N 54°32' E 018°45'4 8.8
2018-Feb-06 21:30N 54°35' E 018°51'9 9.2
2018-Feb-06 20:30N 54°43' E 018°57'14 9.1
2018-Feb-06 19:00N 54°53' E 018°41'510.0
2018-Feb-06 18:30N 54°56' E 018°34'5 9.6
2018-Feb-06 18:00N 54°57' E 018°26'107 9.4
2018-Feb-06 06:35N 54°50' E 015°20'3 9.5
2018-Feb-06 06:17N 54°50' E 015°15'12 9.3
2018-Feb-06 05:00N 54°52' E 014°54'5 9.7
2018-Feb-06 04:30N 54°53' E 014°46'5 9.8
2018-Feb-06 04:00N 54°54' E 014°38'50 9.7
2018-Feb-05 22:50N 55°09' E 013°14'4 9.9
2018-Feb-05 22:28N 55°10' E 013°09'4 9.8
2018-Feb-05 22:00N 55°12' E 013°01'5 9.8
2018-Feb-05 21:30N 55°14' E 012°53'12 7.9
2018-Feb-05 20:00N 55°23' E 012°39'5 9.5
2018-Feb-05 19:30N 55°27' E 012°41'5 9.2
2018-Feb-05 19:00N 55°32' E 012°42'4 8.2
2018-Feb-05 18:30N 55°36' E 012°42'4 7.9
2018-Feb-05 18:00N 55°40' E 012°41'4 8.9
2018-Feb-05 17:30N 55°44' E 012°41'5 9.2
2018-Feb-05 17:00N 55°49' E 012°40'5 9.2
2018-Feb-05 16:30N 55°53' E 012°39'4 8.8
2018-Feb-05 16:00N 55°58' E 012°38'7 7.4
2018-Feb-05 15:00N 56°05' E 012°35'4 7.3
2018-Feb-05 14:30N 56°07' E 012°30'5 9.4
2018-Feb-05 14:00N 56°10' E 012°23'510.3
2018-Feb-05 13:30N 56°13' E 012°15'46 9.6
2018-Feb-05 08:40N 56°56' E 011°45'210.1
2018-Feb-05 08:29N 56°58' E 011°44'510.0
2018-Feb-05 08:00N 57°03' E 011°41'5 9.9
2018-Feb-05 07:30N 57°07' E 011°38'5 9.7
2018-Feb-05 07:00N 57°12' E 011°35'5 9.3
2018-Feb-05 06:30N 57°16' E 011°32'9 9.0
2018-Feb-05 05:30N 57°25' E 011°26'4 8.5
2018-Feb-05 05:01N 57°28' E 011°23'4 8.7
2018-Feb-05 04:30N 57°31' E 011°17'4 8.7
2018-Feb-05 04:00N 57°34' E 011°10'4 8.9
2018-Feb-05 03:30N 57°37' E 011°04'5 9.1
2018-Feb-05 03:00N 57°40' E 010°58'5 9.1
2018-Feb-05 02:30N 57°43' E 010°51'4 8.9
2018-Feb-05 02:00N 57°46' E 010°45'4 8.2
2018-Feb-05 01:30N 57°48' E 010°38'4 8.2
2018-Feb-05 01:00N 57°48' E 010°30'14 8.4
2018-Feb-04 23:22N 57°48' E 010°05'3 8.6
2018-Feb-04 22:59N 57°48' E 009°58'4 8.6
2018-Feb-04 22:29N 57°48' E 009°50'4 8.6
2018-Feb-04 22:00N 57°48' E 009°43'4 8.5
2018-Feb-04 21:30N 57°48' E 009°35'40 6.5
2018-Feb-04 15:26N 57°50' E 008°21'2 3.7
2018-Feb-04 15:00N 57°50' E 008°17'2 3.6
2018-Feb-04 14:30N 57°50' E 008°14'2 3.4
2018-Feb-04 13:59N 57°50' E 008°11'1 3.1
2018-Feb-04 13:30N 57°50' E 008°08'2 3.6
2018-Feb-04 12:59N 57°50' E 008°04'2 4.1
2018-Feb-04 12:30N 57°50' E 008°01'2 4.6
2018-Feb-04 12:00N 57°51' E 007°56'3 5.1
2018-Feb-04 11:30N 57°51' E 007°52'9 5.8
2018-Feb-04 10:00N 57°51' E 007°35'6 6.2
2018-Feb-04 09:00N 57°52' E 007°24'3 6.6
2018-Feb-04 08:30N 57°52' E 007°17'4 7.2
2018-Feb-04 08:00N 57°52' E 007°11'4 7.6
2018-Feb-04 07:30N 57°52' E 007°04'4 7.1
2018-Feb-04 07:00N 57°53' E 006°57'4 7.9
2018-Feb-04 06:31N 57°55' E 006°51'4 8.5
2018-Feb-04 06:01N 57°57' E 006°44'4 8.2
2018-Feb-04 05:30N 57°59' E 006°37'4 8.7
2018-Feb-04 05:00N 58°01' E 006°30'5 9.0
2018-Feb-04 04:30N 58°04' E 006°23'4 9.1
2018-Feb-04 04:00N 58°07' E 006°17'4 8.5
2018-Feb-04 03:31N 58°10' E 006°12'4 8.4
2018-Feb-04 03:00N 58°13' E 006°05'4 8.6
2018-Feb-04 02:30N 58°16' E 005°60'5 9.1
2018-Feb-04 02:00N 58°19' E 005°53'4 8.9
2018-Feb-04 01:30N 58°22' E 005°48'4 8.6
2018-Feb-04 01:00N 58°25' E 005°42'4 7.8
2018-Feb-04 00:30N 58°28' E 005°37'5 9.2
2018-Feb-04 00:00N 58°32' E 005°32'5 9.3
2018-Feb-03 23:30N 58°36' E 005°27'5 9.9
2018-Feb-03 23:00N 58°40' E 005°22'5 9.8
2018-Feb-03 22:30N 58°44' E 005°18'5 9.4
2018-Feb-03 22:00N 58°48' E 005°13'5 9.5
2018-Feb-03 21:30N 58°52' E 005°08'5 9.3
2018-Feb-03 21:00N 58°56' E 005°03'4 8.9
2018-Feb-03 20:30N 58°60' E 004°59'4 8.6
2018-Feb-03 20:00N 59°04' E 004°54'69 9.3
2018-Feb-03 12:35N 60°11' E 004°27'2 7.9
2018-Feb-03 12:19N 60°13' E 004°27'4 7.6
2018-Feb-03 11:50N 60°17' E 004°26'4 7.6
2018-Feb-03 11:21N 60°21' E 004°25'4 7.9
2018-Feb-03 10:48N 60°25' E 004°24'3 7.8
2018-Feb-03 10:28N 60°28' E 004°23'4 7.8
2018-Feb-03 09:59N 60°31' E 004°22'4 7.6
2018-Feb-03 09:30N 60°35' E 004°22'4 7.8
2018-Feb-03 09:00N 60°39' E 004°22'4 8.1
2018-Feb-03 08:30N 60°43' E 004°21'4 8.2
2018-Feb-03 08:00N 60°47' E 004°20'12 8.3
2018-Feb-03 06:31N 60°59' E 004°17'4 7.6
2018-Feb-03 06:01N 61°03' E 004°18'4 7.6
2018-Feb-03 05:30N 61°07' E 004°19'4 7.6
2018-Feb-03 04:58N 61°11' E 004°21'8 7.9
2018-Feb-03 04:00N 61°19' E 004°22'4 8.9
2018-Feb-03 03:30N 61°23' E 004°23'15 9.7
2018-Feb-03 02:00N 61°37' E 004°27'5 9.8
2018-Feb-03 01:29N 61°42' E 004°30'5 9.6
2018-Feb-03 01:00N 61°47' E 004°33'5 9.1
2018-Feb-03 00:30N 61°51' E 004°37'5 9.0
2018-Feb-03 00:00N 61°55' E 004°41'5 9.0
2018-Feb-02 23:30N 61°59' E 004°45'5 9.0
2018-Feb-02 23:00N 62°03' E 004°48'5 9.3
2018-Feb-02 22:30N 62°08' E 004°52'4 8.9
2018-Feb-02 22:00N 62°12' E 004°56'4 8.5
2018-Feb-02 21:30N 62°16' E 004°60'4 8.9
2018-Feb-02 21:00N 62°19' E 005°06'5 9.5
2018-Feb-02 20:31N 62°22' E 005°12'5 9.8
2018-Feb-02 20:00N 62°26' E 005°19'10 9.6
2018-Feb-02 19:00N 62°34' E 005°33'5 9.4
2018-Feb-02 18:29N 62°37' E 005°39'5 9.3
2018-Feb-02 18:00N 62°41' E 005°46'5 9.3
2018-Feb-02 17:29N 62°45' E 005°52'5 9.6
2018-Feb-02 17:00N 62°48' E 005°59'510.0
2018-Feb-02 16:29N 62°52' E 006°07'10 9.7
2018-Feb-02 15:29N 62°59' E 006°21'1010.1
2018-Feb-02 14:30N 63°07' E 006°35'510.1
2018-Feb-02 14:00N 63°11' E 006°42'510.0
2018-Feb-02 13:30N 63°15' E 006°48'5 9.5
2018-Feb-02 13:00N 63°19' E 006°54'5 9.3
2018-Feb-02 12:30N 63°22' E 007°00'5 9.3
2018-Feb-02 12:00N 63°26' E 007°05'5 9.7
2018-Feb-02 11:30N 63°31' E 007°12'5 9.3
2018-Feb-02 11:00N 63°34' E 007°18'5 9.5
2018-Feb-02 10:30N 63°38' E 007°24'17 9.5
2018-Feb-02 08:44N 63°52' E 007°47'2 9.0
2018-Feb-02 08:30N 63°53' E 007°51'5 9.3
2018-Feb-02 08:00N 63°56' E 007°59'169 9.1
2018-Feb-01 13:30N 66°19' E 011°30'4 8.1
2018-Feb-01 13:00N 66°23' E 011°33'4 8.1
2018-Feb-01 12:30N 66°27' E 011°35'4 8.1
2018-Feb-01 12:00N 66°31' E 011°38'8 8.2
2018-Feb-01 11:00N 66°38' E 011°48'4 8.1
2018-Feb-01 10:30N 66°41' E 011°55'4 8.8
2018-Feb-01 10:00N 66°45' E 012°02'32 8.8
2018-Feb-01 06:26N 67°10' E 012°51'4 9.6
2018-Feb-01 06:00N 67°13' E 012°58'5 9.8
2018-Feb-01 05:30N 67°17' E 013°06'5 9.4
2018-Feb-01 04:59N 67°21' E 013°13'4 9.2
2018-Feb-01 04:30N 67°24' E 013°20'5 9.2
2018-Feb-01 04:00N 67°28' E 013°27'9 8.8
2018-Feb-01 03:00N 67°34' E 013°43'5 9.3
2018-Feb-01 02:30N 67°38' E 013°52'5 9.2
2018-Feb-01 02:00N 67°41' E 014°00'5 9.4
2018-Feb-01 01:30N 67°44' E 014°09'5 9.3
2018-Feb-01 01:00N 67°47' E 014°18'5 9.6
2018-Feb-01 00:30N 67°51' E 014°27'5 9.4
2018-Jan-31 23:58N 67°54' E 014°36'10 9.8
2018-Jan-31 23:00N 68°01' E 014°54'5 9.4
2018-Jan-31 22:28N 68°05' E 015°03'14 9.6
2018-Jan-31 21:00N 68°13' E 015°35'5 9.6
2018-Jan-31 20:30N 68°16' E 015°45'4 8.8
2018-Jan-31 20:00N 68°18' E 015°54'5 9.8
2018-Jan-31 19:30N 68°22' E 016°04'510.1
2018-Jan-31 18:59N 68°24' E 016°17'510.2
2018-Jan-31 18:30N 68°25' E 016°30'510.1
2018-Jan-31 18:00N 68°26' E 016°43'3 6.3
2018-Jan-31 17:30N 68°24' E 016°50'0 0.2
2018-Jan-31 16:59N 68°24' E 016°50'0 0.0
2018-Jan-31 16:29N 68°24' E 016°50'0 0.0
2018-Jan-31 15:59N 68°24' E 016°50'0 0.0
2018-Jan-31 15:29N 68°24' E 016°50'0 0.0
2018-Jan-31 14:59N 68°24' E 016°50'0 0.0
2018-Jan-31 14:29N 68°24' E 016°50'0 0.0
2018-Jan-31 12:59N 68°24' E 016°50'  

Dump ship's entire track history